F/V Renaissance II — FMEW — position and weather

sailwx.info

Track history (hours):
 
Tides and Currents Weather Stations Pressure Air Temp Water Temp Dewpoint Dewpoint Depression Visibility Wind Speed Wind Dir Waves Ship Positions

F/V Renaissance II

Last reported at 2016-May-03 04:20 UTC. Time now 2016-May-03 16:16 UTC.
Position N 46°34' W 002°13'.

Length 18 m.

Type: Fishing. MMSI: 228216600.

Date/timePositionNaut miles runAvg speedWind from/ knotsBaromVisibWave heightAir tempDewpointWater temp
2016-May-03 04:20N 46°34' W 002°13'8 9.7
2016-May-03 03:33N 46°32' W 002°02'9 9.4
2016-May-03 02:33N 46°29' W 001°49'2 1.9
2016-May-03 01:34N 46°30' W 001°47'0 0.2
2016-May-03 00:33N 46°30' W 001°47'5 5.1
2016-May-02 23:33N 46°25' W 001°48'9 8.5
2016-May-02 22:33N 46°16' W 001°50'  
2016-Apr-30 10:13N 44°55' W 001°36'74 5.7
2016-Apr-29 21:13N 46°09' W 001°46'6 9.4
2016-Apr-29 20:33N 46°15' W 001°46'10 9.5
2016-Apr-29 19:33N 46°25' W 001°47'5 5.0
2016-Apr-29 18:33N 46°30' W 001°47'8 8.0
2016-Apr-29 17:33N 46°22' W 001°50'8 0.3
2016-Apr-28 17:33N 46°30' W 001°47'6 5.8
2016-Apr-28 16:33N 46°29' W 001°56'8 7.9
2016-Apr-28 15:33N 46°31' W 002°07'1 0.6
2016-Apr-28 14:33N 46°30' W 002°07'7 0.5
2016-Apr-28 01:21N 46°30' W 002°17'5 6.9
2016-Apr-28 00:33N 46°30' W 002°09'7 7.1
2016-Apr-27 23:33N 46°29' W 001°59'7 7.0
2016-Apr-27 22:33N 46°28' W 001°49'2 1.8
2016-Apr-27 21:33N 46°30' W 001°47'5 5.3
2016-Apr-27 20:33N 46°25' W 001°48'8 8.4
2016-Apr-27 19:33N 46°16' W 001°48'9 0.2
2016-Apr-25 21:31N 46°07' W 001°51'9 9.0
2016-Apr-25 20:33N 46°16' W 001°50'9 9.1
2016-Apr-25 19:33N 46°25' W 001°48'5 4.9
2016-Apr-25 18:33N 46°30' W 001°47'2 1.7
2016-Apr-25 17:33N 46°28' W 001°48'10 9.9
2016-Apr-25 16:33N 46°32' W 002°02'  
Track history (hours):
 
Tides and Currents Weather Stations Pressure Air Temp Water Temp Dewpoint Dewpoint Depression Visibility Wind Speed Wind Dir Waves Ship Positions

F/V Renaissance II

Last reported at 2016-May-03 04:20 UTC. Time now 2016-May-03 16:16 UTC.
Position N 46°34' W 002°13'.

Length 18 m.

Type: Fishing. MMSI: 228216600.

Date/timePositionNaut miles runAvg speedWind from/ knotsBaromVisibWave heightAir tempDewpointWater temp
2016-May-03 04:20N 46°34' W 002°13'8 9.7
2016-May-03 03:33N 46°32' W 002°02'9 9.4
2016-May-03 02:33N 46°29' W 001°49'2 1.9
2016-May-03 01:34N 46°30' W 001°47'0 0.2
2016-May-03 00:33N 46°30' W 001°47'5 5.1
2016-May-02 23:33N 46°25' W 001°48'9 8.5
2016-May-02 22:33N 46°16' W 001°50'  
2016-Apr-30 10:13N 44°55' W 001°36'74 5.7
2016-Apr-29 21:13N 46°09' W 001°46'6 9.4
2016-Apr-29 20:33N 46°15' W 001°46'10 9.5
2016-Apr-29 19:33N 46°25' W 001°47'5 5.0
2016-Apr-29 18:33N 46°30' W 001°47'8 8.0
2016-Apr-29 17:33N 46°22' W 001°50'8 0.3
2016-Apr-28 17:33N 46°30' W 001°47'6 5.8
2016-Apr-28 16:33N 46°29' W 001°56'8 7.9
2016-Apr-28 15:33N 46°31' W 002°07'1 0.6
2016-Apr-28 14:33N 46°30' W 002°07'7 0.5
2016-Apr-28 01:21N 46°30' W 002°17'5 6.9
2016-Apr-28 00:33N 46°30' W 002°09'7 7.1
2016-Apr-27 23:33N 46°29' W 001°59'7 7.0
2016-Apr-27 22:33N 46°28' W 001°49'2 1.8
2016-Apr-27 21:33N 46°30' W 001°47'5 5.3
2016-Apr-27 20:33N 46°25' W 001°48'8 8.4
2016-Apr-27 19:33N 46°16' W 001°48'9 0.2
2016-Apr-25 21:31N 46°07' W 001°51'9 9.0
2016-Apr-25 20:33N 46°16' W 001°50'9 9.1
2016-Apr-25 19:33N 46°25' W 001°48'5 4.9
2016-Apr-25 18:33N 46°30' W 001°47'2 1.7
2016-Apr-25 17:33N 46°28' W 001°48'10 9.9
2016-Apr-25 16:33N 46°32' W 002°02'  

Dump ship's entire track history